sensor_id;sensor_type;location;lat;lon;timestamp;pressure;altitude;pressure_sealevel;temperature;humidity
28701;BME280;15877;52.344;16.790;2023-04-26T00:01:22;100171.66;;;10.03;56.77
28701;BME280;15877;52.344;16.790;2023-04-26T00:03:57;100169.92;;;10.14;56.12
28701;BME280;15877;52.344;16.790;2023-04-26T00:06:31;100171.25;;;10.29;55.13
28701;BME280;15877;52.344;16.790;2023-04-26T00:09:03;100160.16;;;10.18;55.06
28701;BME280;15877;52.344;16.790;2023-04-26T00:11:36;100167.30;;;10.17;55.28
28701;BME280;15877;52.344;16.790;2023-04-26T00:14:09;100168.77;;;10.12;55.45
28701;BME280;15877;52.344;16.790;2023-04-26T00:16:41;100169.14;;;9.76;56.59
28701;BME280;15877;52.344;16.790;2023-04-26T00:19:13;100174.58;;;9.82;56.43
28701;BME280;15877;52.344;16.790;2023-04-26T00:21:47;100175.61;;;9.53;56.94
28701;BME280;15877;52.344;16.790;2023-04-26T00:24:20;100179.73;;;9.38;57.55
28701;BME280;15877;52.344;16.790;2023-04-26T00:26:54;100176.44;;;9.50;57.20
28701;BME280;15877;52.344;16.790;2023-04-26T00:29:27;100177.98;;;9.52;56.91
28701;BME280;15877;52.344;16.790;2023-04-26T00:31:59;100177.32;;;9.47;56.91
28701;BME280;15877;52.344;16.790;2023-04-26T00:34:37;100181.55;;;9.45;56.90
28701;BME280;15877;52.344;16.790;2023-04-26T00:37:09;100184.17;;;9.28;57.28
28701;BME280;15877;52.344;16.790;2023-04-26T00:39:42;100181.20;;;9.47;56.70
28701;BME280;15877;52.344;16.790;2023-04-26T00:42:14;100181.71;;;9.52;56.33
28701;BME280;15877;52.344;16.790;2023-04-26T00:44:47;100183.46;;;9.57;56.33
28701;BME280;15877;52.344;16.790;2023-04-26T00:47:21;100184.14;;;9.55;56.10
28701;BME280;15877;52.344;16.790;2023-04-26T00:49:53;100185.14;;;9.36;56.50
28701;BME280;15877;52.344;16.790;2023-04-26T00:52:26;100188.40;;;9.58;56.08
28701;BME280;15877;52.344;16.790;2023-04-26T00:54:59;100179.01;;;9.52;55.84
28701;BME280;15877;52.344;16.790;2023-04-26T00:57:32;100194.39;;;9.53;55.75
28701;BME280;15877;52.344;16.790;2023-04-26T01:00:07;100195.36;;;9.61;55.45
28701;BME280;15877;52.344;16.790;2023-04-26T01:02:40;100195.73;;;9.49;55.45
28701;BME280;15877;52.344;16.790;2023-04-26T01:05:13;100196.71;;;9.39;55.82
28701;BME280;15877;52.344;16.790;2023-04-26T01:07:47;100204.81;;;9.27;55.99
28701;BME280;15877;52.344;16.790;2023-04-26T01:10:21;100199.66;;;9.40;55.48
28701;BME280;15877;52.344;16.790;2023-04-26T01:12:54;100204.84;;;9.28;55.53
28701;BME280;15877;52.344;16.790;2023-04-26T01:15:28;100202.05;;;9.24;55.58
28701;BME280;15877;52.344;16.790;2023-04-26T01:18:03;100193.96;;;9.17;55.73
28701;BME280;15877;52.344;16.790;2023-04-26T01:20:37;100202.76;;;9.17;55.70
28701;BME280;15877;52.344;16.790;2023-04-26T01:23:09;100203.49;;;9.15;55.83
28701;BME280;15877;52.344;16.790;2023-04-26T01:25:42;100202.83;;;9.14;55.68
28701;BME280;15877;52.344;16.790;2023-04-26T01:28:16;100198.78;;;9.10;56.00
28701;BME280;15877;52.344;16.790;2023-04-26T01:30:49;100195.73;;;9.18;55.68
28701;BME280;15877;52.344;16.790;2023-04-26T01:33:21;100197.38;;;9.11;55.76
28701;BME280;15877;52.344;16.790;2023-04-26T01:35:55;100200.09;;;9.14;55.63
28701;BME280;15877;52.344;16.790;2023-04-26T01:38:27;100198.97;;;9.01;56.10
28701;BME280;15877;52.344;16.790;2023-04-26T01:40:59;100201.89;;;9.05;56.05
28701;BME280;15877;52.344;16.790;2023-04-26T01:43:32;100206.06;;;8.94;56.06
28701;BME280;15877;52.344;16.790;2023-04-26T01:46:05;100205.63;;;8.86;56.46
28701;BME280;15877;52.344;16.790;2023-04-26T01:48:38;100205.73;;;8.81;56.63
28701;BME280;15877;52.344;16.790;2023-04-26T01:51:11;100205.88;;;8.96;56.34
28701;BME280;15877;52.344;16.790;2023-04-26T01:53:43;100207.66;;;8.79;56.82
28701;BME280;15877;52.344;16.790;2023-04-26T01:56:16;100212.38;;;8.90;56.48
28701;BME280;15877;52.344;16.790;2023-04-26T01:58:48;100210.39;;;8.84;56.61
28701;BME280;15877;52.344;16.790;2023-04-26T02:01:21;100211.34;;;8.87;56.61
28701;BME280;15877;52.344;16.790;2023-04-26T02:03:54;100204.05;;;8.85;56.24
28701;BME280;15877;52.344;16.790;2023-04-26T02:06:26;100204.04;;;8.73;56.62
28701;BME280;15877;52.344;16.790;2023-04-26T02:08:58;100214.16;;;8.85;56.18
28701;BME280;15877;52.344;16.790;2023-04-26T02:11:32;100212.08;;;8.78;56.52
28701;BME280;15877;52.344;16.790;2023-04-26T02:14:04;100206.45;;;8.75;56.50
28701;BME280;15877;52.344;16.790;2023-04-26T02:16:37;100210.75;;;8.73;56.69
28701;BME280;15877;52.344;16.790;2023-04-26T02:19:10;100216.50;;;8.72;56.48
28701;BME280;15877;52.344;16.790;2023-04-26T02:21:54;100216.05;;;8.60;56.69
28701;BME280;15877;52.344;16.790;2023-04-26T02:24:27;100218.75;;;8.67;56.57
28701;BME280;15877;52.344;16.790;2023-04-26T02:27:03;100214.92;;;8.65;56.55
28701;BME280;15877;52.344;16.790;2023-04-26T02:29:37;100210.30;;;8.52;56.80
28701;BME280;15877;52.344;16.790;2023-04-26T02:42:32;100210.80;;;8.36;57.57
28701;BME280;15877;52.344;16.790;2023-04-26T02:45:06;100207.39;;;8.35;57.33
28701;BME280;15877;52.344;16.790;2023-04-26T02:47:40;100210.65;;;8.39;57.28
28701;BME280;15877;52.344;16.790;2023-04-26T02:50:13;100212.42;;;8.34;57.26
28701;BME280;15877;52.344;16.790;2023-04-26T02:52:46;100215.31;;;8.36;57.33
28701;BME280;15877;52.344;16.790;2023-04-26T02:55:19;100210.41;;;8.26;57.56
28701;BME280;15877;52.344;16.790;2023-04-26T02:57:52;100198.86;;;8.14;57.66
28701;BME280;15877;52.344;16.790;2023-04-26T03:00:24;100212.77;;;8.17;57.87
28701;BME280;15877;52.344;16.790;2023-04-26T03:02:57;100219.56;;;8.24;57.64
28701;BME280;15877;52.344;16.790;2023-04-26T03:05:30;100218.35;;;8.21;57.73
28701;BME280;15877;52.344;16.790;2023-04-26T03:08:03;100196.47;;;7.94;58.14
28701;BME280;15877;52.344;16.790;2023-04-26T03:10:37;100221.90;;;8.18;57.96
28701;BME280;15877;52.344;16.790;2023-04-26T03:13:09;100218.98;;;8.18;57.84
28701;BME280;15877;52.344;16.790;2023-04-26T03:15:46;100225.08;;;8.28;57.60
28701;BME280;15877;52.344;16.790;2023-04-26T03:18:20;100222.94;;;8.13;58.04
28701;BME280;15877;52.344;16.790;2023-04-26T03:20:53;100223.38;;;8.03;58.46
28701;BME280;15877;52.344;16.790;2023-04-26T03:23:25;100221.48;;;8.09;58.18
28701;BME280;15877;52.344;16.790;2023-04-26T03:25:59;100222.77;;;8.12;58.18
28701;BME280;15877;52.344;16.790;2023-04-26T03:28:32;100230.77;;;7.91;58.83
28701;BME280;15877;52.344;16.790;2023-04-26T03:31:04;100229.63;;;7.92;58.93
28701;BME280;15877;52.344;16.790;2023-04-26T03:33:37;100228.17;;;8.03;58.55
28701;BME280;15877;52.344;16.790;2023-04-26T03:36:10;100231.42;;;7.97;58.53
28701;BME280;15877;52.344;16.790;2023-04-26T03:38:42;100240.56;;;7.80;59.01
28701;BME280;15877;52.344;16.790;2023-04-26T03:41:15;100234.14;;;7.87;58.96
28701;BME280;15877;52.344;16.790;2023-04-26T03:43:48;100241.98;;;7.88;59.04
28701;BME280;15877;52.344;16.790;2023-04-26T03:46:21;100239.57;;;7.82;59.33
28701;BME280;15877;52.344;16.790;2023-04-26T03:48:54;100240.89;;;7.78;59.38
28701;BME280;15877;52.344;16.790;2023-04-26T03:51:28;100234.17;;;7.81;59.41
28701;BME280;15877;52.344;16.790;2023-04-26T03:54:01;100246.32;;;7.83;59.34
28701;BME280;15877;52.344;16.790;2023-04-26T03:56:33;100243.59;;;7.71;59.77
28701;BME280;15877;52.344;16.790;2023-04-26T03:59:07;100240.71;;;7.75;59.76
28701;BME280;15877;52.344;16.790;2023-04-26T04:01:40;100251.66;;;7.79;59.68
28701;BME280;15877;52.344;16.790;2023-04-26T04:04:12;100252.91;;;7.76;59.81
28701;BME280;15877;52.344;16.790;2023-04-26T04:06:46;100254.46;;;7.80;59.72
28701;BME280;15877;52.344;16.790;2023-04-26T04:09:19;100256.12;;;7.88;59.47
28701;BME280;15877;52.344;16.790;2023-04-26T04:11:51;100255.32;;;7.93;59.46
28701;BME280;15877;52.344;16.790;2023-04-26T04:14:24;100256.31;;;7.92;59.51
28701;BME280;15877;52.344;16.790;2023-04-26T04:16:58;100264.40;;;7.79;59.96
28701;BME280;15877;52.344;16.790;2023-04-26T04:19:32;100263.30;;;7.67;60.56
28701;BME280;15877;52.344;16.790;2023-04-26T04:22:05;100262.84;;;7.70;60.58
28701;BME280;15877;52.344;16.790;2023-04-26T04:24:37;100267.33;;;7.77;60.46
28701;BME280;15877;52.344;16.790;2023-04-26T04:27:11;100269.33;;;7.91;60.12
28701;BME280;15877;52.344;16.790;2023-04-26T04:29:45;100272.17;;;7.99;59.85
28701;BME280;15877;52.344;16.790;2023-04-26T04:32:18;100277.64;;;7.99;60.03
28701;BME280;15877;52.344;16.790;2023-04-26T04:34:51;100278.08;;;7.98;60.06
28701;BME280;15877;52.344;16.790;2023-04-26T04:37:23;100283.39;;;7.80;60.86
28701;BME280;15877;52.344;16.790;2023-04-26T04:39:57;100285.08;;;8.02;60.18
28701;BME280;15877;52.344;16.790;2023-04-26T04:42:29;100291.52;;;7.90;60.49
28701;BME280;15877;52.344;16.790;2023-04-26T04:45:04;100290.19;;;7.88;60.64
28701;BME280;15877;52.344;16.790;2023-04-26T04:47:39;100289.18;;;7.99;60.38
28701;BME280;15877;52.344;16.790;2023-04-26T04:50:12;100289.42;;;7.94;60.59
28701;BME280;15877;52.344;16.790;2023-04-26T04:52:47;100293.66;;;7.91;60.76
28701;BME280;15877;52.344;16.790;2023-04-26T04:55:20;100278.64;;;7.90;60.59
28701;BME280;15877;52.344;16.790;2023-04-26T04:57:52;100292.65;;;7.89;60.97
28701;BME280;15877;52.344;16.790;2023-04-26T05:00:26;100300.17;;;7.84;61.13
28701;BME280;15877;52.344;16.790;2023-04-26T05:03:07;100298.45;;;7.79;61.66
28701;BME280;15877;52.344;16.790;2023-04-26T05:05:40;100283.77;;;7.87;61.26
28701;BME280;15877;52.344;16.790;2023-04-26T05:08:12;100302.28;;;7.91;61.34
28701;BME280;15877;52.344;16.790;2023-04-26T05:10:45;100305.34;;;7.87;61.42
28701;BME280;15877;52.344;16.790;2023-04-26T05:13:19;100304.13;;;7.97;61.22
28701;BME280;15877;52.344;16.790;2023-04-26T05:15:51;100293.21;;;7.94;60.95
28701;BME280;15877;52.344;16.790;2023-04-26T05:18:24;100307.85;;;7.95;61.30
28701;BME280;15877;52.344;16.790;2023-04-26T05:20:57;100311.77;;;7.97;61.64
28701;BME280;15877;52.344;16.790;2023-04-26T05:23:30;100316.31;;;7.95;61.59
28701;BME280;15877;52.344;16.790;2023-04-26T05:26:06;100319.75;;;8.09;61.18
28701;BME280;15877;52.344;16.790;2023-04-26T05:28:54;100318.11;;;8.02;61.47
28701;BME280;15877;52.344;16.790;2023-04-26T05:31:33;100324.35;;;7.99;61.74
28701;BME280;15877;52.344;16.790;2023-04-26T05:34:25;100316.91;;;7.91;62.28
28701;BME280;15877;52.344;16.790;2023-04-26T05:37:00;100328.27;;;8.00;61.89
28701;BME280;15877;52.344;16.790;2023-04-26T05:39:33;100325.53;;;7.94;62.08
28701;BME280;15877;52.344;16.790;2023-04-26T05:42:06;100330.86;;;7.95;62.17
28701;BME280;15877;52.344;16.790;2023-04-26T05:44:39;100330.02;;;7.96;62.37
28701;BME280;15877;52.344;16.790;2023-04-26T05:47:12;100315.55;;;7.96;62.20
28701;BME280;15877;52.344;16.790;2023-04-26T05:49:44;100335.61;;;8.06;62.28
28701;BME280;15877;52.344;16.790;2023-04-26T05:52:18;100333.93;;;7.98;62.57
28701;BME280;15877;52.344;16.790;2023-04-26T05:54:50;100337.54;;;7.96;62.58
28701;BME280;15877;52.344;16.790;2023-04-26T05:57:23;100336.89;;;7.93;62.91
28701;BME280;15877;52.344;16.790;2023-04-26T05:59:56;100329.20;;;7.92;62.84
28701;BME280;15877;52.344;16.790;2023-04-26T06:02:29;100334.60;;;8.01;62.64
28701;BME280;15877;52.344;16.790;2023-04-26T06:05:02;100341.92;;;8.16;62.46
28701;BME280;15877;52.344;16.790;2023-04-26T06:07:36;100336.92;;;8.18;62.07
28701;BME280;15877;52.344;16.790;2023-04-26T06:10:10;100342.69;;;8.37;61.96
28701;BME280;15877;52.344;16.790;2023-04-26T06:12:44;100344.05;;;8.44;61.18
28701;BME280;15877;52.344;16.790;2023-04-26T06:15:17;100338.45;;;8.33;60.90
28701;BME280;15877;52.344;16.790;2023-04-26T06:17:50;100338.58;;;8.43;60.79
28701;BME280;15877;52.344;16.790;2023-04-26T06:20:22;100341.45;;;8.52;60.13
28701;BME280;15877;52.344;16.790;2023-04-26T06:22:55;100327.02;;;8.45;60.08
28701;BME280;15877;52.344;16.790;2023-04-26T06:25:28;100341.38;;;8.64;60.14
28701;BME280;15877;52.344;16.790;2023-04-26T06:28:01;100346.94;;;8.53;59.95
28701;BME280;15877;52.344;16.790;2023-04-26T06:30:34;100347.16;;;8.47;59.90
28701;BME280;15877;52.344;16.790;2023-04-26T06:33:07;100347.02;;;8.37;59.92
28701;BME280;15877;52.344;16.790;2023-04-26T06:35:40;100342.39;;;8.49;59.42
28701;BME280;15877;52.344;16.790;2023-04-26T06:38:14;100349.91;;;8.47;59.33
28701;BME280;15877;52.344;16.790;2023-04-26T06:40:46;100345.42;;;8.53;59.33
28701;BME280;15877;52.344;16.790;2023-04-26T06:43:19;100345.93;;;8.62;59.27
28701;BME280;15877;52.344;16.790;2023-04-26T06:46:00;100352.30;;;8.61;59.01
28701;BME280;15877;52.344;16.790;2023-04-26T06:48:32;100351.90;;;8.66;59.10
28701;BME280;15877;52.344;16.790;2023-04-26T06:51:07;100358.26;;;8.78;58.76
28701;BME280;15877;52.344;16.790;2023-04-26T06:53:39;100353.73;;;8.92;58.65
28701;BME280;15877;52.344;16.790;2023-04-26T06:56:12;100361.48;;;9.06;58.53
28701;BME280;15877;52.344;16.790;2023-04-26T06:58:58;100360.27;;;9.06;58.23
28701;BME280;15877;52.344;16.790;2023-04-26T07:01:32;100359.02;;;9.03;57.52
28701;BME280;15877;52.344;16.790;2023-04-26T07:04:06;100361.78;;;9.03;57.26
28701;BME280;15877;52.344;16.790;2023-04-26T07:06:41;100366.70;;;9.18;57.06
28701;BME280;15877;52.344;16.790;2023-04-26T07:09:13;100366.96;;;9.25;56.54
28701;BME280;15877;52.344;16.790;2023-04-26T07:11:47;100370.27;;;9.09;56.63
28701;BME280;15877;52.344;16.790;2023-04-26T07:14:20;100369.91;;;9.11;56.54
28701;BME280;15877;52.344;16.790;2023-04-26T07:16:53;100372.12;;;9.13;56.67
28701;BME280;15877;52.344;16.790;2023-04-26T07:19:25;100358.80;;;9.16;56.36
28701;BME280;15877;52.344;16.790;2023-04-26T07:21:58;100362.32;;;9.32;56.31
28701;BME280;15877;52.344;16.790;2023-04-26T07:24:31;100370.45;;;9.37;55.43
28701;BME280;15877;52.344;16.790;2023-04-26T07:27:04;100374.16;;;9.46;54.73
28701;BME280;15877;52.344;16.790;2023-04-26T07:29:36;100361.25;;;9.27;54.88
28701;BME280;15877;52.344;16.790;2023-04-26T07:32:09;100362.86;;;9.32;54.85
28701;BME280;15877;52.344;16.790;2023-04-26T07:34:42;100379.35;;;9.51;54.75
28701;BME280;15877;52.344;16.790;2023-04-26T07:37:15;100372.87;;;9.61;54.59
28701;BME280;15877;52.344;16.790;2023-04-26T07:39:47;100376.45;;;9.71;54.71
28701;BME280;15877;52.344;16.790;2023-04-26T07:42:20;100379.89;;;9.72;54.46
28701;BME280;15877;52.344;16.790;2023-04-26T07:44:52;100386.33;;;9.73;54.24
28701;BME280;15877;52.344;16.790;2023-04-26T07:47:25;100390.83;;;9.75;54.10
28701;BME280;15877;52.344;16.790;2023-04-26T07:49:57;100393.05;;;9.72;53.42
28701;BME280;15877;52.344;16.790;2023-04-26T07:52:29;100385.77;;;9.66;54.68
28701;BME280;15877;52.344;16.790;2023-04-26T07:55:02;100393.22;;;9.60;53.91
28701;BME280;15877;52.344;16.790;2023-04-26T07:57:35;100392.29;;;9.55;53.01
28701;BME280;15877;52.344;16.790;2023-04-26T08:00:10;100376.77;;;9.49;53.78
28701;BME280;15877;52.344;16.790;2023-04-26T08:02:43;100389.56;;;9.82;54.18
28701;BME280;15877;52.344;16.790;2023-04-26T08:05:17;100393.12;;;9.92;53.30
28701;BME280;15877;52.344;16.790;2023-04-26T08:07:50;100402.91;;;9.80;52.52
28701;BME280;15877;52.344;16.790;2023-04-26T08:10:22;100386.30;;;9.78;52.07
28701;BME280;15877;52.344;16.790;2023-04-26T08:12:55;100404.46;;;9.92;51.44
28701;BME280;15877;52.344;16.790;2023-04-26T08:15:27;100401.75;;;9.84;51.90
28701;BME280;15877;52.344;16.790;2023-04-26T08:18:00;100401.83;;;10.01;51.06
28701;BME280;15877;52.344;16.790;2023-04-26T08:20:33;100396.20;;;9.95;50.79
28701;BME280;15877;52.344;16.790;2023-04-26T08:23:05;100391.86;;;10.09;50.94
28701;BME280;15877;52.344;16.790;2023-04-26T08:25:38;100401.58;;;10.20;50.63
28701;BME280;15877;52.344;16.790;2023-04-26T08:28:11;100404.29;;;10.10;50.08
28701;BME280;15877;52.344;16.790;2023-04-26T08:30:44;100404.27;;;10.20;49.28
28701;BME280;15877;52.344;16.790;2023-04-26T08:33:18;100379.56;;;10.04;49.46
28701;BME280;15877;52.344;16.790;2023-04-26T08:35:50;100401.94;;;10.22;50.11
28701;BME280;15877;52.344;16.790;2023-04-26T08:38:22;100402.59;;;10.23;50.51
28701;BME280;15877;52.344;16.790;2023-04-26T08:40:56;100396.75;;;10.27;51.33
28701;BME280;15877;52.344;16.790;2023-04-26T08:43:34;100404.58;;;10.40;49.98
28701;BME280;15877;52.344;16.790;2023-04-26T08:46:11;100401.09;;;10.47;49.02
28701;BME280;15877;52.344;16.790;2023-04-26T08:48:51;100405.45;;;10.44;48.06
28701;BME280;15877;52.344;16.790;2023-04-26T08:51:26;100402.52;;;10.48;47.84
28701;BME280;15877;52.344;16.790;2023-04-26T08:54:00;100404.84;;;10.63;46.52
28701;BME280;15877;52.344;16.790;2023-04-26T08:56:35;100412.19;;;10.50;46.60
28701;BME280;15877;52.344;16.790;2023-04-26T08:59:09;100408.66;;;10.53;47.36
28701;BME280;15877;52.344;16.790;2023-04-26T09:01:44;100415.98;;;10.43;46.62
28701;BME280;15877;52.344;16.790;2023-04-26T09:04:17;100399.66;;;10.44;46.99
28701;BME280;15877;52.344;16.790;2023-04-26T09:06:51;100411.98;;;10.52;46.57
28701;BME280;15877;52.344;16.790;2023-04-26T09:09:26;100413.92;;;10.46;46.18
28701;BME280;15877;52.344;16.790;2023-04-26T09:12:00;100415.45;;;10.54;44.97
28701;BME280;15877;52.344;16.790;2023-04-26T09:14:33;100408.60;;;10.68;44.51
28701;BME280;15877;52.344;16.790;2023-04-26T09:17:06;100411.92;;;10.79;43.97
28701;BME280;15877;52.344;16.790;2023-04-26T09:19:55;100408.66;;;10.94;43.66
28701;BME280;15877;52.344;16.790;2023-04-26T09:22:33;100417.31;;;10.98;43.62
28701;BME280;15877;52.344;16.790;2023-04-26T09:25:07;100413.45;;;10.92;42.86
28701;BME280;15877;52.344;16.790;2023-04-26T09:27:41;100420.48;;;10.93;43.29
28701;BME280;15877;52.344;16.790;2023-04-26T09:30:16;100416.64;;;10.96;43.53
28701;BME280;15877;52.344;16.790;2023-04-26T09:32:52;100416.27;;;10.94;43.31
28701;BME280;15877;52.344;16.790;2023-04-26T09:35:30;100415.28;;;10.95;43.32
28701;BME280;15877;52.344;16.790;2023-04-26T09:38:04;100421.71;;;10.84;42.90
28701;BME280;15877;52.344;16.790;2023-04-26T09:40:44;100417.58;;;10.80;43.25
28701;BME280;15877;52.344;16.790;2023-04-26T09:43:19;100420.36;;;10.99;43.69
28701;BME280;15877;52.344;16.790;2023-04-26T09:45:53;100418.80;;;11.16;43.20
28701;BME280;15877;52.344;16.790;2023-04-26T09:48:27;100416.39;;;11.03;43.22
28701;BME280;15877;52.344;16.790;2023-04-26T09:51:09;100419.24;;;10.99;43.89
28701;BME280;15877;52.344;16.790;2023-04-26T09:53:46;100425.23;;;11.13;43.27
28701;BME280;15877;52.344;16.790;2023-04-26T09:56:20;100425.11;;;10.98;43.44
28701;BME280;15877;52.344;16.790;2023-04-26T09:58:58;100434.70;;;10.98;43.91
28701;BME280;15877;52.344;16.790;2023-04-26T10:01:31;100412.94;;;10.70;44.02
28701;BME280;15877;52.344;16.790;2023-04-26T10:04:07;100434.67;;;10.78;44.21
28701;BME280;15877;52.344;16.790;2023-04-26T10:06:39;100433.97;;;10.70;44.63
28701;BME280;15877;52.344;16.790;2023-04-26T10:09:12;100426.48;;;10.81;44.78
28701;BME280;15877;52.344;16.790;2023-04-26T10:11:45;100432.59;;;10.88;44.40
28701;BME280;15877;52.344;16.790;2023-04-26T10:14:19;100430.09;;;10.86;45.07
28701;BME280;15877;52.344;16.790;2023-04-26T10:16:51;100427.23;;;11.05;44.65
28701;BME280;15877;52.344;16.790;2023-04-26T10:19:26;100424.16;;;11.35;44.22
28701;BME280;15877;52.344;16.790;2023-04-26T10:22:01;100423.45;;;11.49;43.80
28701;BME280;15877;52.344;16.790;2023-04-26T10:24:36;100430.15;;;11.46;43.29
28701;BME280;15877;52.344;16.790;2023-04-26T10:27:09;100433.69;;;11.35;42.64
28701;BME280;15877;52.344;16.790;2023-04-26T10:30:06;100429.45;;;11.63;42.91
28701;BME280;15877;52.344;16.790;2023-04-26T10:36:06;100430.15;;;11.94;43.09
28701;BME280;15877;52.344;16.790;2023-04-26T10:38:40;100434.11;;;12.23;42.45
28701;BME280;15877;52.344;16.790;2023-04-26T10:41:34;100440.17;;;12.40;41.89
28701;BME280;15877;52.344;16.790;2023-04-26T10:44:39;100431.88;;;12.56;40.16
28701;BME280;15877;52.344;16.790;2023-04-26T10:47:26;100431.85;;;12.43;39.92
28701;BME280;15877;52.344;16.790;2023-04-26T10:50:07;100428.55;;;12.46;40.38
28701;BME280;15877;52.344;16.790;2023-04-26T10:53:06;100449.28;;;12.16;40.64
28701;BME280;15877;52.344;16.790;2023-04-26T10:55:42;100437.29;;;12.07;40.30
28701;BME280;15877;52.344;16.790;2023-04-26T10:58:39;100435.32;;;11.94;39.72
28701;BME280;15877;52.344;16.790;2023-04-26T11:01:16;100444.39;;;11.85;39.26
28701;BME280;15877;52.344;16.790;2023-04-26T11:04:08;100439.29;;;11.84;39.94
28701;BME280;15877;52.344;16.790;2023-04-26T11:06:52;100443.86;;;11.91;40.02
28701;BME280;15877;52.344;16.790;2023-04-26T11:09:35;100434.75;;;12.03;39.85
28701;BME280;15877;52.344;16.790;2023-04-26T11:12:11;100441.81;;;11.74;40.09
28701;BME280;15877;52.344;16.790;2023-04-26T11:14:43;100453.40;;;11.56;38.93
28701;BME280;15877;52.344;16.790;2023-04-26T11:17:16;100452.80;;;11.59;38.85
28701;BME280;15877;52.344;16.790;2023-04-26T11:19:49;100452.62;;;11.57;39.61
28701;BME280;15877;52.344;16.790;2023-04-26T11:22:23;100435.13;;;11.61;39.98
28701;BME280;15877;52.344;16.790;2023-04-26T11:24:56;100449.56;;;11.75;40.17
28701;BME280;15877;52.344;16.790;2023-04-26T11:27:31;100443.05;;;11.85;40.64
28701;BME280;15877;52.344;16.790;2023-04-26T11:30:05;100444.13;;;11.93;40.18
28701;BME280;15877;52.344;16.790;2023-04-26T11:32:39;100446.30;;;11.99;39.53
28701;BME280;15877;52.344;16.790;2023-04-26T11:35:11;100451.30;;;11.90;39.91
28701;BME280;15877;52.344;16.790;2023-04-26T11:37:45;100451.02;;;11.73;39.97
28701;BME280;15877;52.344;16.790;2023-04-26T11:40:19;100456.98;;;11.61;40.00
28701;BME280;15877;52.344;16.790;2023-04-26T11:42:52;100459.91;;;11.51;40.10
28701;BME280;15877;52.344;16.790;2023-04-26T11:45:25;100458.02;;;11.48;40.63
28701;BME280;15877;52.344;16.790;2023-04-26T11:47:58;100459.14;;;11.53;41.28
28701;BME280;15877;52.344;16.790;2023-04-26T11:50:31;100468.23;;;11.55;41.34
28701;BME280;15877;52.344;16.790;2023-04-26T11:53:06;100473.86;;;11.46;41.48
28701;BME280;15877;52.344;16.790;2023-04-26T11:55:39;100466.34;;;11.55;41.20
28701;BME280;15877;52.344;16.790;2023-04-26T11:58:13;100459.79;;;11.65;40.97
28701;BME280;15877;52.344;16.790;2023-04-26T12:00:59;100461.13;;;11.83;41.13
28701;BME280;15877;52.344;16.790;2023-04-26T12:03:33;100462.67;;;12.08;40.81
28701;BME280;15877;52.344;16.790;2023-04-26T12:06:08;100463.72;;;12.03;41.04
28701;BME280;15877;52.344;16.790;2023-04-26T12:08:40;100448.63;;;11.82;41.45
28701;BME280;15877;52.344;16.790;2023-04-26T12:11:16;100462.17;;;11.87;40.80
28701;BME280;15877;52.344;16.790;2023-04-26T12:13:49;100469.15;;;11.86;39.62
28701;BME280;15877;52.344;16.790;2023-04-26T12:16:22;100467.09;;;11.77;39.73
28701;BME280;15877;52.344;16.790;2023-04-26T12:18:57;100468.93;;;11.78;40.43
28701;BME280;15877;52.344;16.790;2023-04-26T12:21:38;100467.09;;;11.82;40.53
28701;BME280;15877;52.344;16.790;2023-04-26T12:24:25;100462.03;;;11.98;41.54
28701;BME280;15877;52.344;16.790;2023-04-26T12:27:00;100464.11;;;12.07;41.35
28701;BME280;15877;52.344;16.790;2023-04-26T12:29:33;100465.84;;;12.06;40.89
28701;BME280;15877;52.344;16.790;2023-04-26T12:32:06;100447.19;;;11.77;40.66
28701;BME280;15877;52.344;16.790;2023-04-26T12:34:39;100470.52;;;11.87;40.75
28701;BME280;15877;52.344;16.790;2023-04-26T12:37:12;100471.80;;;11.92;40.60
28701;BME280;15877;52.344;16.790;2023-04-26T12:39:45;100471.73;;;12.07;39.92
28701;BME280;15877;52.344;16.790;2023-04-26T12:42:18;100472.65;;;12.56;38.85
28701;BME280;15877;52.344;16.790;2023-04-26T12:44:51;100469.55;;;12.85;38.46
28701;BME280;15877;52.344;16.790;2023-04-26T12:47:24;100467.38;;;13.01;38.59
28701;BME280;15877;52.344;16.790;2023-04-26T12:49:56;100460.98;;;12.88;38.29
28701;BME280;15877;52.344;16.790;2023-04-26T12:52:31;100467.38;;;12.84;38.64
28701;BME280;15877;52.344;16.790;2023-04-26T12:55:04;100485.73;;;12.58;39.37
28701;BME280;15877;52.344;16.790;2023-04-26T12:57:38;100474.73;;;12.46;39.87
28701;BME280;15877;52.344;16.790;2023-04-26T13:00:14;100478.98;;;12.38;40.21
28701;BME280;15877;52.344;16.790;2023-04-26T13:02:47;100474.08;;;12.35;40.67
28701;BME280;15877;52.344;16.790;2023-04-26T13:05:20;100475.73;;;12.76;40.20
28701;BME280;15877;52.344;16.790;2023-04-26T13:07:54;100477.30;;;13.04;39.64
28701;BME280;15877;52.344;16.790;2023-04-26T13:10:27;100480.08;;;13.20;38.80
28701;BME280;15877;52.344;16.790;2023-04-26T13:12:59;100479.05;;;12.98;37.91
28701;BME280;15877;52.344;16.790;2023-04-26T13:15:33;100490.56;;;13.05;38.30
28701;BME280;15877;52.344;16.790;2023-04-26T13:18:05;100486.86;;;13.15;38.29
28701;BME280;15877;52.344;16.790;2023-04-26T13:20:38;100491.18;;;13.16;38.54
28701;BME280;15877;52.344;16.790;2023-04-26T13:23:10;100486.65;;;13.05;38.25
28701;BME280;15877;52.344;16.790;2023-04-26T13:25:43;100494.40;;;12.84;37.86
28701;BME280;15877;52.344;16.790;2023-04-26T13:28:15;100498.66;;;12.65;38.11
28701;BME280;15877;52.344;16.790;2023-04-26T13:30:48;100497.19;;;12.63;38.56
28701;BME280;15877;52.344;16.790;2023-04-26T13:33:22;100498.94;;;12.57;39.04
28701;BME280;15877;52.344;16.790;2023-04-26T13:35:56;100503.05;;;12.50;39.67